sensor_id;sensor_type;location;lat;lon;timestamp;P1;P2;P0
80643;PMS5003;70010;60.224;24.712;2024-01-10T00:01:01;2;2;
80643;PMS5003;70010;60.224;24.712;2024-01-10T00:03:26;3;3;
80643;PMS5003;70010;60.224;24.712;2024-01-10T00:05:52;1;1;
80643;PMS5003;70010;60.224;24.712;2024-01-10T00:08:17;2;2;
80643;PMS5003;70010;60.224;24.712;2024-01-10T00:10:42;3;3;
80643;PMS5003;70010;60.224;24.712;2024-01-10T00:13:08;2;2;
80643;PMS5003;70010;60.224;24.712;2024-01-10T00:15:33;2;2;
80643;PMS5003;70010;60.224;24.712;2024-01-10T00:17:58;4;4;
80643;PMS5003;70010;60.224;24.712;2024-01-10T00:20:23;5;4;
80643;PMS5003;70010;60.224;24.712;2024-01-10T00:22:49;5;4;
80643;PMS5003;70010;60.224;24.712;2024-01-10T00:25:14;4;2;
80643;PMS5003;70010;60.224;24.712;2024-01-10T00:27:39;2;2;
80643;PMS5003;70010;60.224;24.712;2024-01-10T00:30:05;2;2;
80643;PMS5003;70010;60.224;24.712;2024-01-10T00:32:30;5;3;
80643;PMS5003;70010;60.224;24.712;2024-01-10T00:34:55;5;4;
80643;PMS5003;70010;60.224;24.712;2024-01-10T00:37:21;4;4;
80643;PMS5003;70010;60.224;24.712;2024-01-10T00:39:46;4;4;
80643;PMS5003;70010;60.224;24.712;2024-01-10T00:42:11;7;4;
80643;PMS5003;70010;60.224;24.712;2024-01-10T00:44:37;4;2;
80643;PMS5003;70010;60.224;24.712;2024-01-10T00:47:03;3;3;
80643;PMS5003;70010;60.224;24.712;2024-01-10T00:49:28;3;3;
80643;PMS5003;70010;60.224;24.712;2024-01-10T00:51:53;2;2;
80643;PMS5003;70010;60.224;24.712;2024-01-10T00:54:18;4;4;
80643;PMS5003;70010;60.224;24.712;2024-01-10T00:56:44;2;2;
80643;PMS5003;70010;60.224;24.712;2024-01-10T00:59:09;4;4;
80643;PMS5003;70010;60.224;24.712;2024-01-10T01:01:34;4;2;
80643;PMS5003;70010;60.224;24.712;2024-01-10T01:04:00;5;3;
80643;PMS5003;70010;60.224;24.712;2024-01-10T01:06:25;4;3;
80643;PMS5003;70010;60.224;24.712;2024-01-10T01:08:50;3;3;
80643;PMS5003;70010;60.224;24.712;2024-01-10T01:11:16;2;2;
80643;PMS5003;70010;60.224;24.712;2024-01-10T01:13:41;3;2;
80643;PMS5003;70010;60.224;24.712;2024-01-10T01:16:06;2;2;
80643;PMS5003;70010;60.224;24.712;2024-01-10T01:18:31;7;4;
80643;PMS5003;70010;60.224;24.712;2024-01-10T01:20:57;2;2;
80643;PMS5003;70010;60.224;24.712;2024-01-10T01:23:22;2;2;
80643;PMS5003;70010;60.224;24.712;2024-01-10T01:25:47;6;4;
80643;PMS5003;70010;60.224;24.712;2024-01-10T01:28:13;2;2;
80643;PMS5003;70010;60.224;24.712;2024-01-10T01:30:38;4;3;
80643;PMS5003;70010;60.224;24.712;2024-01-10T01:33:04;3;3;
80643;PMS5003;70010;60.224;24.712;2024-01-10T01:35:29;4;4;
80643;PMS5003;70010;60.224;24.712;2024-01-10T01:37:54;4;3;
80643;PMS5003;70010;60.224;24.712;2024-01-10T01:40:19;2;2;
80643;PMS5003;70010;60.224;24.712;2024-01-10T01:42:45;6;5;
80643;PMS5003;70010;60.224;24.712;2024-01-10T01:45:10;4;3;
80643;PMS5003;70010;60.224;24.712;2024-01-10T01:47:35;4;3;
80643;PMS5003;70010;60.224;24.712;2024-01-10T01:50:01;4;4;
80643;PMS5003;70010;60.224;24.712;2024-01-10T01:52:27;5;4;
80643;PMS5003;70010;60.224;24.712;2024-01-10T01:54:51;3;3;
80643;PMS5003;70010;60.224;24.712;2024-01-10T01:57:17;4;4;
80643;PMS5003;70010;60.224;24.712;2024-01-10T01:59:42;4;4;
80643;PMS5003;70010;60.224;24.712;2024-01-10T02:02:07;5;3;
80643;PMS5003;70010;60.224;24.712;2024-01-10T02:04:33;4;3;
80643;PMS5003;70010;60.224;24.712;2024-01-10T02:06:58;5;5;
80643;PMS5003;70010;60.224;24.712;2024-01-10T02:09:23;4;2;
80643;PMS5003;70010;60.224;24.712;2024-01-10T02:11:49;4;3;
80643;PMS5003;70010;60.224;24.712;2024-01-10T02:14:14;5;3;
80643;PMS5003;70010;60.224;24.712;2024-01-10T02:16:39;4;4;
80643;PMS5003;70010;60.224;24.712;2024-01-10T02:21:30;3;3;
80643;PMS5003;70010;60.224;24.712;2024-01-10T02:23:56;6;4;
80643;PMS5003;70010;60.224;24.712;2024-01-10T02:26:21;7;5;
80643;PMS5003;70010;60.224;24.712;2024-01-10T02:28:46;4;4;
80643;PMS5003;70010;60.224;24.712;2024-01-10T02:31:12;3;3;
80643;PMS5003;70010;60.224;24.712;2024-01-10T02:33:38;5;4;
80643;PMS5003;70010;60.224;24.712;2024-01-10T02:36:04;2;2;
80643;PMS5003;70010;60.224;24.712;2024-01-10T02:38:29;3;3;
80643;PMS5003;70010;60.224;24.712;2024-01-10T02:40:54;7;3;
80643;PMS5003;70010;60.224;24.712;2024-01-10T02:43:19;3;3;
80643;PMS5003;70010;60.224;24.712;2024-01-10T02:45:45;4;4;
80643;PMS5003;70010;60.224;24.712;2024-01-10T02:48:10;4;2;
80643;PMS5003;70010;60.224;24.712;2024-01-10T02:50:35;4;2;
80643;PMS5003;70010;60.224;24.712;2024-01-10T02:53:01;3;3;
80643;PMS5003;70010;60.224;24.712;2024-01-10T02:55:26;3;3;
80643;PMS5003;70010;60.224;24.712;2024-01-10T02:57:51;3;3;
80643;PMS5003;70010;60.224;24.712;2024-01-10T03:00:17;5;3;
80643;PMS5003;70010;60.224;24.712;2024-01-10T03:02:42;3;1;
80643;PMS5003;70010;60.224;24.712;2024-01-10T03:05:07;3;2;
80643;PMS5003;70010;60.224;24.712;2024-01-10T03:07:33;3;3;
80643;PMS5003;70010;60.224;24.712;2024-01-10T03:09:58;2;1;
80643;PMS5003;70010;60.224;24.712;2024-01-10T03:12:23;3;3;
80643;PMS5003;70010;60.224;24.712;2024-01-10T03:14:48;1;1;
80643;PMS5003;70010;60.224;24.712;2024-01-10T03:17:14;5;3;
80643;PMS5003;70010;60.224;24.712;2024-01-10T03:19:39;4;3;
80643;PMS5003;70010;60.224;24.712;2024-01-10T03:22:04;3;3;
80643;PMS5003;70010;60.224;24.712;2024-01-10T03:24:30;3;3;
80643;PMS5003;70010;60.224;24.712;2024-01-10T03:26:55;3;3;
80643;PMS5003;70010;60.224;24.712;2024-01-10T03:29:20;5;4;
80643;PMS5003;70010;60.224;24.712;2024-01-10T03:31:46;5;4;
80643;PMS5003;70010;60.224;24.712;2024-01-10T03:34:11;5;4;
80643;PMS5003;70010;60.224;24.712;2024-01-10T03:36:36;3;3;
80643;PMS5003;70010;60.224;24.712;2024-01-10T03:39:02;3;3;
80643;PMS5003;70010;60.224;24.712;2024-01-10T03:41:27;4;3;
80643;PMS5003;70010;60.224;24.712;2024-01-10T03:43:52;4;4;
80643;PMS5003;70010;60.224;24.712;2024-01-10T03:46:17;3;3;
80643;PMS5003;70010;60.224;24.712;2024-01-10T03:48:43;4;3;
80643;PMS5003;70010;60.224;24.712;2024-01-10T03:51:08;5;3;
80643;PMS5003;70010;60.224;24.712;2024-01-10T03:53:33;3;3;
80643;PMS5003;70010;60.224;24.712;2024-01-10T03:55:59;5;4;
80643;PMS5003;70010;60.224;24.712;2024-01-10T03:58:24;6;4;
80643;PMS5003;70010;60.224;24.712;2024-01-10T04:00:49;6;4;
80643;PMS5003;70010;60.224;24.712;2024-01-10T04:03:15;2;2;
80643;PMS5003;70010;60.224;24.712;2024-01-10T04:05:41;4;3;
80643;PMS5003;70010;60.224;24.712;2024-01-10T04:08:06;5;4;
80643;PMS5003;70010;60.224;24.712;2024-01-10T04:10:31;9;4;
80643;PMS5003;70010;60.224;24.712;2024-01-10T04:12:57;4;4;
80643;PMS5003;70010;60.224;24.712;2024-01-10T04:15:22;2;2;
80643;PMS5003;70010;60.224;24.712;2024-01-10T04:17:47;4;3;
80643;PMS5003;70010;60.224;24.712;2024-01-10T04:20:13;4;3;
80643;PMS5003;70010;60.224;24.712;2024-01-10T04:22:38;3;3;
80643;PMS5003;70010;60.224;24.712;2024-01-10T04:25:05;3;3;
80643;PMS5003;70010;60.224;24.712;2024-01-10T04:27:29;11;6;
80643;PMS5003;70010;60.224;24.712;2024-01-10T04:29:54;4;4;
80643;PMS5003;70010;60.224;24.712;2024-01-10T04:32:20;2;2;
80643;PMS5003;70010;60.224;24.712;2024-01-10T04:34:45;5;5;
80643;PMS5003;70010;60.224;24.712;2024-01-10T04:37:10;5;5;
80643;PMS5003;70010;60.224;24.712;2024-01-10T04:39:36;6;6;
80643;PMS5003;70010;60.224;24.712;2024-01-10T04:42:01;5;4;
80643;PMS5003;70010;60.224;24.712;2024-01-10T04:44:26;4;3;
80643;PMS5003;70010;60.224;24.712;2024-01-10T04:46:52;5;5;
80643;PMS5003;70010;60.224;24.712;2024-01-10T04:49:17;4;3;
80643;PMS5003;70010;60.224;24.712;2024-01-10T04:51:42;8;4;
80643;PMS5003;70010;60.224;24.712;2024-01-10T04:54:08;4;2;
80643;PMS5003;70010;60.224;24.712;2024-01-10T04:56:33;2;2;
80643;PMS5003;70010;60.224;24.712;2024-01-10T04:58:58;4;3;
80643;PMS5003;70010;60.224;24.712;2024-01-10T05:01:24;5;3;
80643;PMS5003;70010;60.224;24.712;2024-01-10T05:03:49;6;4;
80643;PMS5003;70010;60.224;24.712;2024-01-10T05:06:14;4;4;
80643;PMS5003;70010;60.224;24.712;2024-01-10T05:08:40;2;2;
80643;PMS5003;70010;60.224;24.712;2024-01-10T05:11:05;4;2;
80643;PMS5003;70010;60.224;24.712;2024-01-10T05:13:30;1;1;
80643;PMS5003;70010;60.224;24.712;2024-01-10T05:15:56;3;2;
80643;PMS5003;70010;60.224;24.712;2024-01-10T05:18:21;2;2;
80643;PMS5003;70010;60.224;24.712;2024-01-10T05:20:46;2;2;
80643;PMS5003;70010;60.224;24.712;2024-01-10T05:23:12;1;0;
80643;PMS5003;70010;60.224;24.712;2024-01-10T05:25:37;3;2;
80643;PMS5003;70010;60.224;24.712;2024-01-10T05:28:02;2;2;
80643;PMS5003;70010;60.224;24.712;2024-01-10T05:30:28;2;2;
80643;PMS5003;70010;60.224;24.712;2024-01-10T05:32:53;2;2;
80643;PMS5003;70010;60.224;24.712;2024-01-10T05:35:18;2;2;
80643;PMS5003;70010;60.224;24.712;2024-01-10T05:37:43;1;1;
80643;PMS5003;70010;60.224;24.712;2024-01-10T05:40:09;4;4;
80643;PMS5003;70010;60.224;24.712;2024-01-10T05:42:34;6;3;
80643;PMS5003;70010;60.224;24.712;2024-01-10T05:45:00;5;2;
80643;PMS5003;70010;60.224;24.712;2024-01-10T05:47:25;3;3;
80643;PMS5003;70010;60.224;24.712;2024-01-10T05:49:50;6;4;
80643;PMS5003;70010;60.224;24.712;2024-01-10T05:52:15;6;4;
80643;PMS5003;70010;60.224;24.712;2024-01-10T05:54:41;3;3;
80643;PMS5003;70010;60.224;24.712;2024-01-10T05:57:06;5;5;
80643;PMS5003;70010;60.224;24.712;2024-01-10T05:59:31;2;2;
80643;PMS5003;70010;60.224;24.712;2024-01-10T06:01:57;4;4;
80643;PMS5003;70010;60.224;24.712;2024-01-10T06:04:22;6;4;
80643;PMS5003;70010;60.224;24.712;2024-01-10T06:06:47;2;2;
80643;PMS5003;70010;60.224;24.712;2024-01-10T06:09:13;9;3;
80643;PMS5003;70010;60.224;24.712;2024-01-10T06:11:40;4;4;
80643;PMS5003;70010;60.224;24.712;2024-01-10T06:14:04;4;2;
80643;PMS5003;70010;60.224;24.712;2024-01-10T06:16:29;2;2;
80643;PMS5003;70010;60.224;24.712;2024-01-10T06:18:54;4;3;
80643;PMS5003;70010;60.224;24.712;2024-01-10T06:21:19;4;4;
80643;PMS5003;70010;60.224;24.712;2024-01-10T06:23:45;3;3;
80643;PMS5003;70010;60.224;24.712;2024-01-10T06:26:10;3;3;
80643;PMS5003;70010;60.224;24.712;2024-01-10T06:28:35;6;5;
80643;PMS5003;70010;60.224;24.712;2024-01-10T06:31:01;3;3;
80643;PMS5003;70010;60.224;24.712;2024-01-10T06:33:26;4;4;
80643;PMS5003;70010;60.224;24.712;2024-01-10T06:35:51;5;4;
80643;PMS5003;70010;60.224;24.712;2024-01-10T06:38:17;5;5;
80643;PMS5003;70010;60.224;24.712;2024-01-10T06:40:42;5;4;
80643;PMS5003;70010;60.224;24.712;2024-01-10T06:43:08;11;7;
80643;PMS5003;70010;60.224;24.712;2024-01-10T06:45:33;5;4;
80643;PMS5003;70010;60.224;24.712;2024-01-10T06:47:58;4;4;
80643;PMS5003;70010;60.224;24.712;2024-01-10T06:50:24;4;4;
80643;PMS5003;70010;60.224;24.712;2024-01-10T06:52:50;5;4;
80643;PMS5003;70010;60.224;24.712;2024-01-10T06:55:15;6;5;
80643;PMS5003;70010;60.224;24.712;2024-01-10T06:57:40;5;5;
80643;PMS5003;70010;60.224;24.712;2024-01-10T07:00:06;8;7;
80643;PMS5003;70010;60.224;24.712;2024-01-10T07:02:31;10;8;
80643;PMS5003;70010;60.224;24.712;2024-01-10T07:04:56;8;8;
80643;PMS5003;70010;60.224;24.712;2024-01-10T07:07:22;10;8;
80643;PMS5003;70010;60.224;24.712;2024-01-10T07:09:47;13;10;
80643;PMS5003;70010;60.224;24.712;2024-01-10T07:12:13;11;10;
80643;PMS5003;70010;60.224;24.712;2024-01-10T07:14:39;22;10;
80643;PMS5003;70010;60.224;24.712;2024-01-10T07:17:04;26;9;
80643;PMS5003;70010;60.224;24.712;2024-01-10T07:19:29;15;10;
80643;PMS5003;70010;60.224;24.712;2024-01-10T07:21:55;16;11;
80643;PMS5003;70010;60.224;24.712;2024-01-10T07:24:20;12;10;
80643;PMS5003;70010;60.224;24.712;2024-01-10T07:26:46;15;10;
80643;PMS5003;70010;60.224;24.712;2024-01-10T07:29:12;15;13;
80643;PMS5003;70010;60.224;24.712;2024-01-10T07:31:37;12;10;
80643;PMS5003;70010;60.224;24.712;2024-01-10T07:34:03;14;9;
80643;PMS5003;70010;60.224;24.712;2024-01-10T07:36:29;10;9;
80643;PMS5003;70010;60.224;24.712;2024-01-10T07:38:54;16;12;
80643;PMS5003;70010;60.224;24.712;2024-01-10T07:41:20;19;12;
80643;PMS5003;70010;60.224;24.712;2024-01-10T07:43:46;15;8;
80643;PMS5003;70010;60.224;24.712;2024-01-10T07:46:11;9;9;
80643;PMS5003;70010;60.224;24.712;2024-01-10T07:48:36;10;10;
80643;PMS5003;70010;60.224;24.712;2024-01-10T07:51:02;16;10;
80643;PMS5003;70010;60.224;24.712;2024-01-10T07:53:27;15;9;
80643;PMS5003;70010;60.224;24.712;2024-01-10T07:55:52;20;12;
80643;PMS5003;70010;60.224;24.712;2024-01-10T07:58:17;19;11;
80643;PMS5003;70010;60.224;24.712;2024-01-10T08:00:43;10;9;
80643;PMS5003;70010;60.224;24.712;2024-01-10T08:03:08;10;9;
80643;PMS5003;70010;60.224;24.712;2024-01-10T08:05:34;12;10;
80643;PMS5003;70010;60.224;24.712;2024-01-10T08:08:00;11;8;
80643;PMS5003;70010;60.224;24.712;2024-01-10T08:10:25;21;12;
80643;PMS5003;70010;60.224;24.712;2024-01-10T08:12:50;11;11;
80643;PMS5003;70010;60.224;24.712;2024-01-10T08:15:16;10;9;
80643;PMS5003;70010;60.224;24.712;2024-01-10T08:17:41;17;12;
80643;PMS5003;70010;60.224;24.712;2024-01-10T08:20:08;10;7;
80643;PMS5003;70010;60.224;24.712;2024-01-10T08:22:32;13;10;
80643;PMS5003;70010;60.224;24.712;2024-01-10T08:24:57;13;10;
80643;PMS5003;70010;60.224;24.712;2024-01-10T08:27:23;12;10;
80643;PMS5003;70010;60.224;24.712;2024-01-10T08:29:48;11;11;
80643;PMS5003;70010;60.224;24.712;2024-01-10T08:32:14;13;9;
80643;PMS5003;70010;60.224;24.712;2024-01-10T08:34:39;10;8;
80643;PMS5003;70010;60.224;24.712;2024-01-10T08:37:04;12;9;
80643;PMS5003;70010;60.224;24.712;2024-01-10T08:39:30;11;10;
80643;PMS5003;70010;60.224;24.712;2024-01-10T08:41:55;18;8;
80643;PMS5003;70010;60.224;24.712;2024-01-10T08:44:21;12;9;
80643;PMS5003;70010;60.224;24.712;2024-01-10T08:46:46;10;8;
80643;PMS5003;70010;60.224;24.712;2024-01-10T08:49:11;12;11;
80643;PMS5003;70010;60.224;24.712;2024-01-10T08:51:37;12;9;
80643;PMS5003;70010;60.224;24.712;2024-01-10T08:54:03;10;9;
80643;PMS5003;70010;60.224;24.712;2024-01-10T08:56:28;10;9;
80643;PMS5003;70010;60.224;24.712;2024-01-10T08:58:54;11;10;
80643;PMS5003;70010;60.224;24.712;2024-01-10T09:01:19;10;9;
80643;PMS5003;70010;60.224;24.712;2024-01-10T09:03:45;10;10;
80643;PMS5003;70010;60.224;24.712;2024-01-10T09:06:10;8;8;
80643;PMS5003;70010;60.224;24.712;2024-01-10T09:08:36;13;10;
80643;PMS5003;70010;60.224;24.712;2024-01-10T09:11:01;12;9;
80643;PMS5003;70010;60.224;24.712;2024-01-10T09:13:27;9;6;
80643;PMS5003;70010;60.224;24.712;2024-01-10T09:15:52;6;6;
80643;PMS5003;70010;60.224;24.712;2024-01-10T09:18:18;8;8;
80643;PMS5003;70010;60.224;24.712;2024-01-10T09:20:43;10;6;
80643;PMS5003;70010;60.224;24.712;2024-01-10T09:23:08;11;7;
80643;PMS5003;70010;60.224;24.712;2024-01-10T09:25:34;5;5;
80643;PMS5003;70010;60.224;24.712;2024-01-10T09:27:59;8;8;
80643;PMS5003;70010;60.224;24.712;2024-01-10T09:30:25;9;7;
80643;PMS5003;70010;60.224;24.712;2024-01-10T09:32:50;8;8;
80643;PMS5003;70010;60.224;24.712;2024-01-10T09:35:15;11;9;
80643;PMS5003;70010;60.224;24.712;2024-01-10T09:37:41;15;7;
80643;PMS5003;70010;60.224;24.712;2024-01-10T09:40:07;6;6;
80643;PMS5003;70010;60.224;24.712;2024-01-10T09:42:31;16;7;
80643;PMS5003;70010;60.224;24.712;2024-01-10T09:44:57;10;6;
80643;PMS5003;70010;60.224;24.712;2024-01-10T09:47:22;7;7;
80643;PMS5003;70010;60.224;24.712;2024-01-10T09:49:47;7;5;
80643;PMS5003;70010;60.224;24.712;2024-01-10T09:52:15;5;5;
80643;PMS5003;70010;60.224;24.712;2024-01-10T09:54:38;6;6;
80643;PMS5003;70010;60.224;24.712;2024-01-10T09:57:03;6;6;
80643;PMS5003;70010;60.224;24.712;2024-01-10T09:59:28;8;7;
80643;PMS5003;70010;60.224;24.712;2024-01-10T10:01:54;5;5;
80643;PMS5003;70010;60.224;24.712;2024-01-10T10:04:19;7;5;
80643;PMS5003;70010;60.224;24.712;2024-01-10T10:06:45;5;5;
80643;PMS5003;70010;60.224;24.712;2024-01-10T10:09:10;7;6;
80643;PMS5003;70010;60.224;24.712;2024-01-10T10:11:35;8;5;
80643;PMS5003;70010;60.224;24.712;2024-01-10T10:16:26;8;7;
80643;PMS5003;70010;60.224;24.712;2024-01-10T10:18:51;6;5;
80643;PMS5003;70010;60.224;24.712;2024-01-10T10:21:17;6;6;
80643;PMS5003;70010;60.224;24.712;2024-01-10T10:23:42;4;4;
80643;PMS5003;70010;60.224;24.712;2024-01-10T10:26:11;6;4;
80643;PMS5003;70010;60.224;24.712;2024-01-10T10:28:33;7;4;
80643;PMS5003;70010;60.224;24.712;2024-01-10T10:30:58;4;4;
80643;PMS5003;70010;60.224;24.712;2024-01-10T10:33:23;6;6;
80643;PMS5003;70010;60.224;24.712;2024-01-10T10:35:49;5;5;
80643;PMS5003;70010;60.224;24.712;2024-01-10T10:38:14;4;4;
80643;PMS5003;70010;60.224;24.712;2024-01-10T10:40:39;5;3;
80643;PMS5003;70010;60.224;24.712;2024-01-10T10:43:04;5;4;
80643;PMS5003;70010;60.224;24.712;2024-01-10T10:45:30;4;4;
80643;PMS5003;70010;60.224;24.712;2024-01-10T10:47:56;2;2;
80643;PMS5003;70010;60.224;24.712;2024-01-10T10:50:21;3;2;
80643;PMS5003;70010;60.224;24.712;2024-01-10T10:52:46;2;2;
80643;PMS5003;70010;60.224;24.712;2024-01-10T10:55:11;2;2;
80643;PMS5003;70010;60.224;24.712;2024-01-10T10:57:36;4;4;
80643;PMS5003;70010;60.224;24.712;2024-01-10T11:00:02;3;3;
80643;PMS5003;70010;60.224;24.712;2024-01-10T11:02:27;3;3;
80643;PMS5003;70010;60.224;24.712;2024-01-10T11:04:53;4;4;
80643;PMS5003;70010;60.224;24.712;2024-01-10T11:07:18;5;4;
80643;PMS5003;70010;60.224;24.712;2024-01-10T11:09:43;3;3;
80643;PMS5003;70010;60.224;24.712;2024-01-10T11:12:15;5;4;
80643;PMS5003;70010;60.224;24.712;2024-01-10T11:14:36;3;3;
80643;PMS5003;70010;60.224;24.712;2024-01-10T11:17:03;6;5;
80643;PMS5003;70010;60.224;24.712;2024-01-10T11:21:53;4;4;
80643;PMS5003;70010;60.224;24.712;2024-01-10T11:24:15;6;4;
80643;PMS5003;70010;60.224;24.712;2024-01-10T11:26:40;7;4;
80643;PMS5003;70010;60.224;24.712;2024-01-10T11:29:05;4;4;
80643;PMS5003;70010;60.224;24.712;2024-01-10T11:31:31;5;4;
80643;PMS5003;70010;60.224;24.712;2024-01-10T11:33:56;6;4;
80643;PMS5003;70010;60.224;24.712;2024-01-10T11:36:21;4;4;
80643;PMS5003;70010;60.224;24.712;2024-01-10T11:38:48;7;3;
80643;PMS5003;70010;60.224;24.712;2024-01-10T11:41:15;4;4;
80643;PMS5003;70010;60.224;24.712;2024-01-10T11:43:38;5;4;
80643;PMS5003;70010;60.224;24.712;2024-01-10T11:46:04;10;4;
80643;PMS5003;70010;60.224;24.712;2024-01-10T11:48:30;7;4;
80643;PMS5003;70010;60.224;24.712;2024-01-10T11:50:54;5;5;
80643;PMS5003;70010;60.224;24.712;2024-01-10T11:55:46;4;4;
80643;PMS5003;70010;60.224;24.712;2024-01-10T11:58:10;3;3;
80643;PMS5003;70010;60.224;24.712;2024-01-10T12:00:36;5;5;
80643;PMS5003;70010;60.224;24.712;2024-01-10T12:03:01;6;4;
80643;PMS5003;70010;60.224;24.712;2024-01-10T12:05:26;3;3;
80643;PMS5003;70010;60.224;24.712;2024-01-10T12:07:52;8;6;
80643;PMS5003;70010;60.224;24.712;2024-01-10T12:10:18;2;2;
80643;PMS5003;70010;60.224;24.712;2024-01-10T12:12:43;5;4;
80643;PMS5003;70010;60.224;24.712;2024-01-10T12:15:08;3;3;
80643;PMS5003;70010;60.224;24.712;2024-01-10T12:17:35;2;2;
80643;PMS5003;70010;60.224;24.712;2024-01-10T12:19:59;5;4;
80643;PMS5003;70010;60.224;24.712;2024-01-10T12:22:24;3;3;
80643;PMS5003;70010;60.224;24.712;2024-01-10T12:24:49;2;2;
80643;PMS5003;70010;60.224;24.712;2024-01-10T12:27:16;2;2;
80643;PMS5003;70010;60.224;24.712;2024-01-10T12:29:40;3;3;
80643;PMS5003;70010;60.224;24.712;2024-01-10T12:32:07;2;2;
80643;PMS5003;70010;60.224;24.712;2024-01-10T12:34:31;2;2;
80643;PMS5003;70010;60.224;24.712;2024-01-10T12:36:57;2;2;
80643;PMS5003;70010;60.224;24.712;2024-01-10T12:39:22;3;3;
80643;PMS5003;70010;60.224;24.712;2024-01-10T12:41:47;5;3;
80643;PMS5003;70010;60.224;24.712;2024-01-10T12:44:13;2;2;
80643;PMS5003;70010;60.224;24.712;2024-01-10T12:49:04;2;2;
80643;PMS5003;70010;60.224;24.712;2024-01-10T12:51:29;1;1;
80643;PMS5003;70010;60.224;24.712;2024-01-10T12:53:54;2;2;
80643;PMS5003;70010;60.224;24.712;2024-01-10T12:56:19;2;2;
80643;PMS5003;70010;60.224;24.712;2024-01-10T12:58:44;2;2;
80643;PMS5003;70010;60.224;24.712;2024-01-10T13:01:10;9;4;
80643;PMS5003;70010;60.224;24.712;2024-01-10T13:03:37;2;2;
80643;PMS5003;70010;60.224;24.712;2024-01-10T13:06:01;2;1;
80643;PMS5003;70010;60.224;24.712;2024-01-10T13:08:26;2;2;
80643;PMS5003;70010;60.224;24.712;2024-01-10T13:10:52;2;2;
80643;PMS5003;70010;60.224;24.712;2024-01-10T13:13:18;2;2;
80643;PMS5003;70010;60.224;24.712;2024-01-10T13:15:42;2;2;
80643;PMS5003;70010;60.224;24.712;2024-01-10T13:18:08;1;1;
80643;PMS5003;70010;60.224;24.712;2024-01-10T13:20:33;1;1;
80643;PMS5003;70010;60.224;24.712;2024-01-10T13:22:58;3;3;
80643;PMS5003;70010;60.224;24.712;2024-01-10T13:25:24;1;1;
80643;PMS5003;70010;60.224;24.712;2024-01-10T13:27:49;2;2;
80643;PMS5003;70010;60.224;24.712;2024-01-10T13:30:14;1;1;
80643;PMS5003;70010;60.224;24.712;2024-01-10T13:32:40;1;1;
80643;PMS5003;70010;60.224;24.712;2024-01-10T13:35:05;3;1;
80643;PMS5003;70010;60.224;24.712;2024-01-10T13:37:30;2;2;
80643;PMS5003;70010;60.224;24.712;2024-01-10T13:39:56;1;1;
80643;PMS5003;70010;60.224;24.712;2024-01-10T13:42:21;1;1;
80643;PMS5003;70010;60.224;24.712;2024-01-10T13:44:46;1;1;
80643;PMS5003;70010;60.224;24.712;2024-01-10T13:47:12;1;1;
80643;PMS5003;70010;60.224;24.712;2024-01-10T13:49:37;4;1;
80643;PMS5003;70010;60.224;24.712;2024-01-10T13:52:02;2;2;
80643;PMS5003;70010;60.224;24.712;2024-01-10T13:54:28;0;0;
80643;PMS5003;70010;60.224;24.712;2024-01-10T13:56:53;2;2;
80643;PMS5003;70010;60.224;24.712;2024-01-10T13:59:18;2;2;
80643;PMS5003;70010;60.224;24.712;2024-01-10T14:01:44;3;1;
80643;PMS5003;70010;60.224;24.712;2024-01-10T14:04:09;2;2;
80643;PMS5003;70010;60.224;24.712;2024-01-10T14:06:34;2;2;
80643;PMS5003;70010;60.224;24.712;2024-01-10T14:09:00;2;2;
80643;PMS5003;70010;60.224;24.712;2024-01-10T14:11:25;2;2;
80643;PMS5003;70010;60.224;24.712;2024-01-10T14:13:50;1;1;
80643;PMS5003;70010;60.224;24.712;2024-01-10T14:16:16;3;2;
80643;PMS5003;70010;60.224;24.712;2024-01-10T14:18:41;4;4;
80643;PMS5003;70010;60.224;24.712;2024-01-10T14:21:06;4;2;
80643;PMS5003;70010;60.224;24.712;2024-01-10T14:23:32;2;2;
80643;PMS5003;70010;60.224;24.712;2024-01-10T14:25:57;1;1;
80643;PMS5003;70010;60.224;24.712;2024-01-10T14:28:22;1;1;
80643;PMS5003;70010;60.224;24.712;2024-01-10T14:30:48;1;1;
80643;PMS5003;70010;60.224;24.712;2024-01-10T14:33:13;1;1;
80643;PMS5003;70010;60.224;24.712;2024-01-10T14:35:38;1;1;
80643;PMS5003;70010;60.224;24.712;2024-01-10T14:38:04;0;0;
80643;PMS5003;70010;60.224;24.712;2024-01-10T14:40:29;1;1;
80643;PMS5003;70010;60.224;24.712;2024-01-10T14:42:54;1;1;
80643;PMS5003;70010;60.224;24.712;2024-01-10T14:45:20;0;0;
80643;PMS5003;70010;60.224;24.712;2024-01-10T14:47:45;1;1;
80643;PMS5003;70010;60.224;24.712;2024-01-10T14:50:10;0;0;
80643;PMS5003;70010;60.224;24.712;2024-01-10T14:52:36;3;1;
80643;PMS5003;70010;60.224;24.712;2024-01-10T14:55:01;2;2;
80643;PMS5003;70010;60.224;24.712;2024-01-10T14:57:26;2;2;
80643;PMS5003;70010;60.224;24.712;2024-01-10T14:59:52;2;2;
80643;PMS5003;70010;60.224;24.712;2024-01-10T15:02:17;1;1;
80643;PMS5003;70010;60.224;24.712;2024-01-10T15:04:42;3;2;
80643;PMS5003;70010;60.224;24.712;2024-01-10T15:07:08;1;1;
80643;PMS5003;70010;60.224;24.712;2024-01-10T15:09:33;2;1;
80643;PMS5003;70010;60.224;24.712;2024-01-10T15:11:58;0;0;
80643;PMS5003;70010;60.224;24.712;2024-01-10T15:14:24;2;2;
80643;PMS5003;70010;60.224;24.712;2024-01-10T15:16:49;1;1;
80643;PMS5003;70010;60.224;24.712;2024-01-10T15:19:14;0;0;
80643;PMS5003;70010;60.224;24.712;2024-01-10T15:21:40;1;1;
80643;PMS5003;70010;60.224;24.712;2024-01-10T15:24:05;1;1;
80643;PMS5003;70010;60.224;24.712;2024-01-10T15:26:30;1;1;
80643;PMS5003;70010;60.224;24.712;2024-01-10T15:28:56;1;1;
80643;PMS5003;70010;60.224;24.712;2024-01-10T15:31:21;1;1;
80643;PMS5003;70010;60.224;24.712;2024-01-10T15:33:46;0;0;
80643;PMS5003;70010;60.224;24.712;2024-01-10T15:36:12;0;0;
80643;PMS5003;70010;60.224;24.712;2024-01-10T15:38:38;3;2;
80643;PMS5003;70010;60.224;24.712;2024-01-10T15:41:02;0;0;
80643;PMS5003;70010;60.224;24.712;2024-01-10T15:43:28;0;0;
80643;PMS5003;70010;60.224;24.712;2024-01-10T15:45:53;1;1;
80643;PMS5003;70010;60.224;24.712;2024-01-10T15:48:18;1;1;
80643;PMS5003;70010;60.224;24.712;2024-01-10T15:50:44;1;1;
80643;PMS5003;70010;60.224;24.712;2024-01-10T15:53:09;3;2;
80643;PMS5003;70010;60.224;24.712;2024-01-10T15:55:34;1;0;
80643;PMS5003;70010;60.224;24.712;2024-01-10T15:58:00;2;0;
80643;PMS5003;70010;60.224;24.712;2024-01-10T16:00:25;0;0;
80643;PMS5003;70010;60.224;24.712;2024-01-10T16:02:50;1;1;
80643;PMS5003;70010;60.224;24.712;2024-01-10T16:05:15;1;1;
80643;PMS5003;70010;60.224;24.712;2024-01-10T16:07:41;1;1;
80643;PMS5003;70010;60.224;24.712;2024-01-10T16:10:07;1;1;
80643;PMS5003;70010;60.224;24.712;2024-01-10T16:12:32;2;0;
80643;PMS5003;70010;60.224;24.712;2024-01-10T16:14:57;2;0;
80643;PMS5003;70010;60.224;24.712;2024-01-10T16:17:23;0;0;
80643;PMS5003;70010;60.224;24.712;2024-01-10T16:19:48;0;0;
80643;PMS5003;70010;60.224;24.712;2024-01-10T16:22:13;0;0;
80643;PMS5003;70010;60.224;24.712;2024-01-10T16:24:39;1;1;
80643;PMS5003;70010;60.224;24.712;2024-01-10T16:27:04;1;1;
80643;PMS5003;70010;60.224;24.712;2024-01-10T16:29:29;2;1;